createdAt,value
2019-01-22T00:01:27.250Z,16.20
2019-01-22T00:03:58.453Z,16.55
2019-01-22T00:06:29.622Z,16.07
2019-01-22T00:09:00.923Z,18.02
2019-01-22T00:11:34.516Z,16.87
2019-01-22T00:14:05.698Z,15.88
2019-01-22T00:16:36.958Z,16.57
2019-01-22T00:19:08.231Z,17.90
2019-01-22T00:21:39.571Z,17.10
2019-01-22T00:24:10.837Z,18.27
2019-01-22T00:26:41.952Z,15.95
2019-01-22T00:29:13.071Z,18.15
2019-01-22T00:31:44.036Z,17.62
2019-01-22T00:34:15.200Z,14.93
2019-01-22T00:36:46.325Z,16.75
2019-01-22T00:39:17.365Z,18.98
2019-01-22T00:41:48.577Z,16.02
2019-01-22T00:44:19.583Z,17.65
2019-01-22T00:46:50.698Z,18.65
2019-01-22T00:49:21.637Z,16.20
2019-01-22T00:51:52.852Z,15.50
2019-01-22T00:54:24.227Z,17.48
2019-01-22T00:56:55.468Z,16.45
2019-01-22T00:59:26.640Z,13.85
2019-01-22T01:01:57.973Z,16.07
2019-01-22T01:04:29.023Z,16.75
2019-01-22T01:07:00.111Z,15.90
2019-01-22T01:09:31.074Z,14.18
2019-01-22T01:12:02.330Z,15.75
2019-01-22T01:14:33.463Z,15.72
2019-01-22T01:17:04.523Z,17.73
2019-01-22T01:19:35.470Z,15.98
2019-01-22T01:22:06.555Z,15.13
2019-01-22T01:24:37.634Z,15.18
2019-01-22T01:27:09.085Z,16.37
2019-01-22T01:29:40.333Z,14.23
2019-01-22T01:32:11.643Z,14.85
2019-01-22T01:34:42.792Z,13.95
2019-01-22T01:37:13.850Z,13.85
2019-01-22T01:39:45.423Z,15.03
2019-01-22T01:42:16.608Z,15.93
2019-01-22T01:44:47.724Z,16.60
2019-01-22T01:47:19.127Z,14.85
2019-01-22T01:49:50.215Z,15.53
2019-01-22T01:52:21.597Z,17.23
2019-01-22T01:54:52.839Z,17.15
2019-01-22T01:57:23.967Z,16.97
2019-01-22T01:59:55.247Z,19.57
2019-01-22T02:02:26.142Z,16.75
2019-01-22T02:04:57.415Z,18.57
2019-01-22T02:07:28.440Z,18.10
2019-01-22T02:10:00.427Z,20.05
2019-01-22T02:13:07.726Z,15.88
2019-01-22T02:16:04.275Z,16.67
2019-01-22T02:19:10.559Z,14.93
2019-01-22T02:22:52.563Z,16.02
2019-01-22T02:26:19.515Z,15.30
2019-01-22T02:29:50.879Z,16.95
2019-01-22T02:33:32.845Z,15.00
2019-01-22T02:37:01.019Z,14.05
2019-01-22T02:40:07.549Z,15.13
2019-01-22T02:43:48.419Z,16.27
2019-01-22T02:47:37.699Z,16.10
2019-01-22T02:51:33.419Z,14.40
2019-01-22T02:54:24.352Z,14.10
2019-01-22T02:57:59.591Z,13.53
2019-01-22T03:01:38.532Z,14.18
2019-01-22T03:05:06.191Z,14.23
2019-01-22T03:08:43.580Z,13.50
2019-01-22T03:11:43.717Z,13.20
2019-01-22T03:15:07.311Z,12.78
2019-01-22T03:18:17.772Z,13.03
2019-01-22T03:21:39.277Z,12.15
2019-01-22T03:24:58.854Z,11.00
2019-01-22T03:28:09.842Z,13.43
2019-01-22T03:31:33.525Z,13.08
2019-01-22T03:35:12.557Z,11.97
2019-01-22T03:38:38.037Z,12.23
2019-01-22T03:42:28.422Z,12.05
2019-01-22T03:45:39.258Z,11.80
2019-01-22T03:49:11.165Z,10.63
2019-01-22T03:53:00.708Z,11.73
2019-01-22T03:56:42.929Z,10.98
2019-01-22T03:59:14.160Z,11.28
2019-01-22T04:01:45.257Z,9.93
2019-01-22T04:04:16.509Z,11.65
2019-01-22T04:06:55.123Z,10.23
2019-01-22T04:09:54.145Z,10.88
2019-01-22T04:12:25.445Z,10.32
2019-01-22T04:14:56.743Z,10.63
2019-01-22T04:17:27.970Z,10.35
2019-01-22T04:19:59.313Z,10.28
2019-01-22T04:22:41.675Z,10.60
2019-01-22T04:25:46.618Z,9.98
2019-01-22T04:29:07.326Z,10.85
2019-01-22T04:32:14.704Z,9.63
2019-01-22T04:35:44.811Z,10.10
2019-01-22T04:38:50.839Z,9.15
2019-01-22T04:42:00.460Z,9.30
2019-01-22T04:45:54.656Z,9.95
2019-01-22T04:49:37.568Z,9.50
2019-01-22T04:53:17.732Z,8.85
2019-01-22T04:56:40.126Z,10.10
2019-01-22T05:00:05.721Z,8.60
2019-01-22T05:03:10.319Z,8.55
2019-01-22T05:06:23.907Z,9.10
2019-01-22T05:10:13.051Z,8.70
2019-01-22T05:13:35.920Z,8.95
2019-01-22T05:17:05.435Z,8.25
2019-01-22T05:20:37.597Z,7.83
2019-01-22T05:24:20.291Z,8.53
2019-01-22T05:27:41.788Z,8.25
2019-01-22T05:31:06.253Z,7.95
2019-01-22T05:34:11.010Z,7.25
2019-01-22T05:37:52.876Z,8.30
2019-01-22T05:41:24.050Z,7.90
2019-01-22T05:44:46.705Z,13.43
2019-01-22T05:48:21.944Z,12.47
2019-01-22T05:51:18.208Z,13.95
2019-01-22T05:54:47.416Z,14.20
2019-01-22T05:58:20.285Z,12.95
2019-01-22T06:01:16.602Z,16.20
2019-01-22T06:04:45.116Z,13.93
2019-01-22T06:08:34.068Z,12.30
2019-01-22T06:11:48.529Z,11.80
2019-01-22T06:14:59.309Z,9.55
2019-01-22T06:18:40.707Z,15.35
2019-01-22T06:22:10.408Z,25.40
2019-01-22T06:25:49.970Z,28.70
2019-01-22T06:29:22.160Z,30.12
2019-01-22T06:32:31.759Z,23.92
2019-01-22T06:35:48.476Z,28.73
2019-01-22T06:39:00.418Z,26.65
2019-01-22T06:43:11.108Z,27.52
2019-01-22T06:46:17.102Z,27.40
2019-01-22T06:49:42.479Z,24.82
2019-01-22T06:53:06.600Z,24.15
2019-01-22T06:56:25.958Z,22.87
2019-01-22T06:59:39.159Z,20.37
2019-01-22T07:03:04.076Z,19.90
2019-01-22T07:06:38.930Z,20.20
2019-01-22T07:10:37.400Z,19.70
2019-01-22T07:14:10.703Z,19.60
2019-01-22T07:17:46.884Z,17.52
2019-01-22T07:21:01.957Z,21.50
2019-01-22T07:23:54.619Z,18.23
2019-01-22T07:27:38.759Z,17.07
2019-01-22T07:30:58.756Z,18.65
2019-01-22T07:34:26.099Z,20.02
2019-01-22T07:37:55.937Z,18.23
2019-01-22T07:41:30.976Z,20.55
2019-01-22T07:45:08.095Z,17.95
2019-01-22T07:48:24.938Z,22.58
2019-01-22T07:51:53.331Z,25.43
2019-01-22T07:55:21.003Z,27.10
2019-01-22T07:58:59.273Z,24.85
2019-01-22T08:02:29.473Z,21.55
2019-01-22T08:05:43.678Z,23.27
2019-01-22T08:08:57.249Z,21.23
2019-01-22T08:12:02.667Z,19.12
2019-01-22T08:15:25.908Z,21.62
2019-01-22T08:19:10.194Z,16.90
2019-01-22T08:23:13.492Z,18.52
2019-01-22T08:26:30.081Z,21.42
2019-01-22T08:29:25.510Z,16.52
2019-01-22T08:32:43.715Z,17.95
2019-01-22T08:36:25.146Z,15.30
2019-01-22T08:40:03.991Z,17.23
2019-01-22T08:43:30.665Z,19.98
2019-01-22T08:47:16.526Z,17.00
2019-01-22T08:50:23.742Z,17.05
2019-01-22T08:53:46.907Z,15.70
2019-01-22T08:57:16.819Z,13.83
2019-01-22T09:00:42.018Z,17.05
2019-01-22T09:03:46.082Z,18.30
2019-01-22T09:07:34.603Z,16.82
2019-01-22T09:11:09.392Z,15.58
2019-01-22T09:14:31.619Z,14.43
2019-01-22T09:17:51.609Z,14.15
2019-01-22T09:21:06.510Z,13.50
2019-01-22T09:24:26.265Z,13.50
2019-01-22T09:28:08.363Z,13.18
2019-01-22T09:31:30.485Z,13.65
2019-01-22T09:35:18.630Z,13.50
2019-01-22T09:37:58.779Z,12.90
2019-01-22T09:40:30.341Z,13.68
2019-01-22T09:43:01.464Z,12.75
2019-01-22T09:45:32.722Z,12.13
2019-01-22T09:48:04.009Z,13.20
2019-01-22T09:50:35.253Z,12.75
2019-01-22T09:53:06.503Z,13.48
2019-01-22T09:55:37.862Z,12.70
2019-01-22T09:58:09.245Z,14.65
2019-01-22T10:00:40.883Z,12.28
2019-01-22T10:03:12.098Z,12.37
2019-01-22T10:05:43.440Z,12.55
2019-01-22T10:08:14.429Z,12.13
2019-01-22T10:10:45.539Z,11.68
2019-01-22T10:13:16.719Z,11.25
2019-01-22T10:15:47.772Z,12.53
2019-01-22T10:18:18.827Z,11.88
2019-01-22T10:20:50.128Z,11.40
2019-01-22T10:23:21.549Z,11.40
2019-01-22T10:25:52.656Z,11.60
2019-01-22T10:28:23.957Z,11.28
2019-01-22T10:30:54.921Z,11.83
2019-01-22T10:33:26.137Z,11.00
2019-01-22T10:35:57.342Z,11.10
2019-01-22T10:38:28.454Z,10.85
2019-01-22T10:40:59.701Z,11.30
2019-01-22T10:43:30.800Z,10.82
2019-01-22T10:46:02.040Z,11.50
2019-01-22T10:48:33.290Z,10.90
2019-01-22T10:51:04.280Z,10.70
2019-01-22T10:53:35.348Z,10.78
2019-01-22T10:56:09.039Z,12.28
2019-01-22T10:58:40.206Z,11.15
2019-01-22T11:01:11.580Z,10.72
2019-01-22T11:03:42.746Z,13.40
2019-01-22T11:06:13.878Z,11.12
2019-01-22T11:08:44.992Z,10.35
2019-01-22T11:11:16.289Z,9.93
2019-01-22T11:13:47.594Z,10.45
2019-01-22T11:16:18.817Z,10.93
2019-01-22T11:18:49.899Z,12.25
2019-01-22T11:21:20.880Z,10.18
2019-01-22T11:23:52.184Z,15.08
2019-01-22T11:26:23.354Z,11.53
2019-01-22T11:28:54.352Z,10.45
2019-01-22T11:31:25.551Z,11.53
2019-01-22T11:33:56.862Z,11.22
2019-01-22T11:36:27.820Z,21.93
2019-01-22T11:38:58.964Z,28.92
2019-01-22T11:41:30.041Z,13.53
2019-01-22T11:44:01.176Z,12.13
2019-01-22T11:46:32.435Z,13.93
2019-01-22T11:49:03.436Z,13.10
2019-01-22T11:51:34.250Z,13.32
2019-01-22T11:54:05.491Z,17.25
2019-01-22T11:56:36.568Z,11.22
2019-01-22T11:59:07.711Z,17.30
2019-01-22T12:01:38.797Z,20.20
2019-01-22T12:04:09.751Z,24.02
2019-01-22T12:06:40.761Z,25.68
2019-01-22T12:09:11.961Z,27.07
2019-01-22T12:11:43.195Z,25.92
2019-01-22T12:14:14.450Z,25.12
2019-01-22T12:16:45.460Z,23.87
2019-01-22T12:19:16.474Z,21.23
2019-01-22T12:21:48.217Z,23.85
2019-01-22T12:24:19.466Z,21.80
2019-01-22T12:26:50.609Z,21.07
2019-01-22T12:29:21.365Z,21.33
2019-01-22T12:31:52.461Z,20.27
2019-01-22T12:34:23.495Z,20.40
2019-01-22T12:36:54.556Z,24.15
2019-01-22T12:39:25.718Z,19.48
2019-01-22T12:41:56.679Z,18.60
2019-01-22T12:44:27.732Z,20.52
2019-01-22T12:46:58.697Z,16.70
2019-01-22T12:49:29.874Z,17.30
2019-01-22T12:52:00.977Z,16.77
2019-01-22T12:54:31.968Z,14.15
2019-01-22T12:57:03.161Z,16.35
2019-01-22T12:59:34.353Z,14.28
2019-01-22T13:02:05.350Z,13.68
2019-01-22T13:04:36.351Z,14.28
2019-01-22T13:07:07.372Z,14.73
2019-01-22T13:09:38.417Z,16.50
2019-01-22T13:12:09.451Z,15.08
2019-01-22T13:15:02.249Z,15.45
2019-01-22T13:17:34.601Z,15.85
2019-01-22T13:20:09.556Z,12.60
2019-01-22T13:22:40.705Z,13.05
2019-01-22T13:25:12.095Z,11.95
2019-01-22T13:27:43.296Z,11.48
2019-01-22T13:30:21.515Z,13.10
2019-01-22T13:32:52.649Z,12.05
2019-01-22T13:35:23.736Z,12.60
2019-01-22T13:37:54.699Z,11.88
2019-01-22T13:40:25.798Z,11.20
2019-01-22T13:42:56.754Z,13.50
2019-01-22T13:45:29.780Z,13.03
2019-01-22T13:48:01.647Z,12.07
2019-01-22T13:50:32.640Z,13.65
2019-01-22T13:53:03.799Z,16.70
2019-01-22T13:55:36.939Z,11.20
2019-01-22T13:58:08.072Z,12.73
2019-01-22T14:00:59.728Z,12.68
2019-01-22T14:03:30.865Z,13.32
2019-01-22T14:06:02.027Z,12.00
2019-01-22T14:08:33.117Z,11.15
2019-01-22T14:11:04.564Z,13.95
2019-01-22T14:13:35.992Z,12.05
2019-01-22T14:16:53.111Z,10.72
2019-01-22T14:19:24.205Z,11.65
2019-01-22T14:21:55.358Z,10.55
2019-01-22T14:24:26.651Z,10.50
2019-01-22T14:26:58.271Z,11.18
2019-01-22T14:29:29.221Z,10.50
2019-01-22T14:32:00.345Z,10.03
2019-01-22T14:34:31.951Z,10.72
2019-01-22T14:37:03.757Z,9.70
2019-01-22T14:39:35.072Z,10.85
2019-01-22T14:42:06.143Z,11.53
2019-01-22T14:44:42.049Z,10.10
2019-01-22T14:47:13.188Z,9.80
2019-01-22T14:49:48.615Z,9.80
2019-01-22T14:52:20.564Z,9.20
2019-01-22T14:54:51.644Z,8.85
2019-01-22T14:57:23.289Z,9.70
2019-01-22T14:59:54.318Z,9.35
2019-01-22T15:02:26.195Z,8.70
2019-01-22T15:04:57.404Z,9.68
2019-01-22T15:07:28.869Z,9.00
2019-01-22T15:09:59.802Z,9.35
2019-01-22T15:12:30.860Z,9.33
2019-01-22T15:15:04.570Z,9.30
2019-01-22T15:17:35.845Z,8.85
2019-01-22T15:20:11.686Z,9.10
2019-01-22T15:22:43.070Z,10.10
2019-01-22T15:25:14.567Z,8.68
2019-01-22T15:27:45.880Z,8.70
2019-01-22T15:30:29.341Z,8.98
2019-01-22T15:33:14.699Z,9.33
2019-01-22T15:35:45.917Z,8.93
2019-01-22T15:38:17.095Z,8.75
2019-01-22T15:40:48.544Z,8.65
2019-01-22T15:43:27.112Z,8.93
2019-01-22T15:45:58.594Z,8.95
2019-01-22T15:48:29.806Z,8.38
2019-01-22T15:51:02.208Z,13.05
2019-01-22T15:53:33.579Z,9.68
2019-01-22T15:56:04.738Z,9.18
2019-01-22T15:58:35.872Z,10.05
2019-01-22T16:01:08.341Z,10.58
2019-01-22T16:03:40.697Z,9.18
2019-01-22T16:06:14.596Z,9.98
2019-01-22T16:08:47.080Z,9.30
2019-01-22T16:11:18.681Z,8.75
2019-01-22T16:13:50.910Z,13.20
2019-01-22T16:16:24.764Z,10.28
2019-01-22T16:18:56.254Z,9.50
2019-01-22T16:21:28.276Z,9.18
2019-01-22T16:23:59.234Z,9.40
2019-01-22T16:26:30.391Z,8.65
2019-01-22T16:29:01.687Z,9.10
2019-01-22T16:31:32.807Z,10.10
2019-01-22T16:34:03.884Z,12.30
2019-01-22T16:36:35.140Z,12.10
2019-01-22T16:39:08.083Z,14.13
2019-01-22T16:41:39.069Z,14.75
2019-01-22T16:44:10.188Z,14.03
2019-01-22T16:46:41.273Z,12.95
2019-01-22T16:49:12.377Z,16.60
2019-01-22T16:51:43.464Z,17.02
2019-01-22T16:54:14.447Z,22.32
2019-01-22T16:56:45.626Z,16.25
2019-01-22T16:59:16.728Z,20.80
2019-01-22T17:01:47.943Z,17.60
2019-01-22T17:04:18.952Z,16.07
2019-01-22T17:06:50.260Z,18.70
2019-01-22T17:09:25.313Z,16.25
2019-01-22T17:11:54.055Z,15.75
2019-01-22T17:14:25.141Z,14.45
2019-01-22T17:16:56.152Z,14.25
2019-01-22T17:19:27.270Z,13.78
2019-01-22T17:21:58.355Z,14.95
2019-01-22T17:24:29.383Z,13.68
2019-01-22T17:27:18.599Z,12.70
2019-01-22T17:29:49.666Z,13.90
2019-01-22T17:32:36.575Z,13.60
2019-01-22T17:35:08.882Z,14.10
2019-01-22T17:37:40.037Z,11.25
2019-01-22T17:40:16.355Z,12.90
2019-01-22T17:42:45.633Z,13.62
2019-01-22T17:45:16.721Z,11.95
2019-01-22T17:47:47.606Z,14.63
2019-01-22T17:50:18.662Z,11.28
2019-01-22T17:52:49.738Z,18.57
2019-01-22T17:55:21.049Z,13.25
2019-01-22T17:57:52.183Z,16.97
2019-01-22T18:00:24.112Z,21.20
2019-01-22T18:02:55.329Z,17.67
2019-01-22T18:05:26.441Z,21.97
2019-01-22T18:07:57.487Z,22.65
2019-01-22T18:10:28.843Z,20.57
2019-01-22T18:12:59.968Z,25.27
2019-01-22T18:15:31.118Z,26.00
2019-01-22T18:18:02.358Z,26.02
2019-01-22T18:20:33.671Z,22.80
2019-01-22T18:23:04.859Z,29.37
2019-01-22T18:25:36.039Z,29.63
2019-01-22T18:28:07.444Z,30.68
2019-01-22T18:30:38.670Z,29.60
2019-01-22T18:33:09.888Z,35.13
2019-01-22T18:35:44.715Z,34.65
2019-01-22T18:38:17.731Z,35.52
2019-01-22T18:40:48.750Z,33.55
2019-01-22T18:43:20.129Z,38.60
2019-01-22T18:45:54.476Z,45.33
2019-01-22T18:48:26.051Z,39.08
2019-01-22T18:50:57.048Z,32.53
2019-01-22T18:53:29.582Z,34.40
2019-01-22T18:56:04.507Z,36.15
2019-01-22T18:58:36.013Z,35.28
2019-01-22T19:01:07.830Z,35.13
2019-01-22T19:03:40.763Z,28.47
2019-01-22T19:06:14.997Z,28.27
2019-01-22T19:08:47.590Z,32.55
2019-01-22T19:11:18.966Z,31.73
2019-01-22T19:13:51.261Z,43.98
2019-01-22T19:16:23.245Z,49.18
2019-01-22T19:18:54.552Z,48.73
2019-01-22T19:21:26.430Z,51.63
2019-01-22T19:24:00.241Z,55.78
2019-01-22T19:26:32.015Z,58.65
2019-01-22T19:29:04.075Z,60.65
2019-01-22T19:31:35.761Z,65.25
2019-01-22T19:34:09.348Z,76.05
2019-01-22T19:36:42.792Z,55.05
2019-01-22T19:39:14.344Z,53.83
2019-01-22T19:42:08.556Z,52.40
2019-01-22T19:44:42.175Z,52.05
2019-01-22T19:47:16.697Z,48.87
2019-01-22T19:49:48.280Z,48.85
2019-01-22T19:52:40.897Z,45.35
2019-01-22T19:55:14.630Z,43.73
2019-01-22T19:57:48.369Z,42.65
2019-01-22T20:00:24.642Z,45.28
2019-01-22T20:02:55.719Z,40.25
2019-01-22T20:05:27.046Z,45.85
2019-01-22T20:07:58.352Z,39.15
2019-01-22T20:10:29.439Z,39.00
2019-01-22T20:13:00.616Z,36.30
2019-01-22T20:15:31.826Z,38.28
2019-01-22T20:18:02.927Z,38.63
2019-01-22T20:20:34.112Z,39.80
2019-01-22T20:23:06.958Z,40.88
2019-01-22T20:25:38.070Z,41.65
2019-01-22T20:28:09.231Z,43.83
2019-01-22T20:30:41.395Z,43.25
2019-01-22T20:33:12.408Z,46.05
2019-01-22T20:35:43.694Z,46.95
2019-01-22T20:38:14.941Z,47.08
2019-01-22T20:40:46.167Z,57.30
2019-01-22T20:43:17.341Z,57.27
2019-01-22T20:45:48.419Z,63.58
2019-01-22T20:48:19.591Z,64.30
2019-01-22T20:50:50.707Z,80.25
2019-01-22T20:53:22.016Z,66.62
2019-01-22T20:55:53.228Z,84.52
2019-01-22T20:58:24.593Z,121.57
2019-01-22T21:00:55.697Z,90.65
2019-01-22T21:03:26.702Z,63.15
2019-01-22T21:05:57.780Z,54.42
2019-01-22T21:08:28.838Z,52.25
2019-01-22T21:11:00.106Z,49.13
2019-01-22T21:13:31.125Z,46.10
2019-01-22T21:16:02.278Z,45.33
2019-01-22T21:18:33.510Z,42.65
2019-01-22T21:21:04.424Z,39.00
2019-01-22T21:23:35.647Z,38.15
2019-01-22T21:26:06.649Z,38.48
2019-01-22T21:28:37.874Z,40.73
2019-01-22T21:31:09.009Z,35.85
2019-01-22T21:33:40.196Z,36.00
2019-01-22T21:36:11.238Z,33.40
2019-01-22T21:38:42.409Z,31.60
2019-01-22T21:41:13.440Z,30.82
2019-01-22T21:43:44.571Z,30.17
2019-01-22T21:46:15.787Z,30.75
2019-01-22T21:48:47.182Z,34.33
2019-01-22T21:51:18.326Z,28.17
2019-01-22T21:53:49.680Z,29.10
2019-01-22T21:56:20.921Z,29.25
2019-01-22T21:58:52.066Z,37.58
2019-01-22T22:01:23.509Z,29.55
2019-01-22T22:03:54.731Z,36.93
2019-01-22T22:06:25.884Z,38.35
2019-01-22T22:08:57.090Z,33.23
2019-01-22T22:11:28.205Z,31.42
2019-01-22T22:13:59.623Z,31.87
2019-01-22T22:16:30.763Z,29.72
2019-01-22T22:19:01.983Z,25.77
2019-01-22T22:21:33.178Z,30.20
2019-01-22T22:24:04.545Z,26.10
2019-01-22T22:26:36.001Z,24.67
2019-01-22T22:29:07.346Z,24.00
2019-01-22T22:31:38.499Z,25.32
2019-01-22T22:34:09.660Z,23.75
2019-01-22T22:36:40.963Z,24.32
2019-01-22T22:39:12.037Z,25.27
2019-01-22T22:41:43.392Z,22.30
2019-01-22T22:44:14.486Z,23.73
2019-01-22T22:46:45.657Z,21.77
2019-01-22T22:49:16.831Z,24.00
2019-01-22T22:51:47.755Z,23.12
2019-01-22T22:54:18.879Z,21.57
2019-01-22T22:56:50.174Z,23.07
2019-01-22T22:59:21.268Z,21.27
2019-01-22T23:01:52.439Z,19.80
2019-01-22T23:04:25.152Z,21.68
2019-01-22T23:06:56.431Z,19.92
2019-01-22T23:09:27.790Z,19.32
2019-01-22T23:11:59.119Z,19.15
2019-01-22T23:14:30.339Z,18.90
2019-01-22T23:17:01.608Z,19.40
2019-01-22T23:19:32.978Z,17.35
2019-01-22T23:22:04.117Z,19.42
2019-01-22T23:24:35.448Z,19.07
2019-01-22T23:27:06.664Z,19.42
2019-01-22T23:29:37.828Z,20.60
2019-01-22T23:32:09.092Z,18.27
2019-01-22T23:34:40.320Z,18.50
2019-01-22T23:37:11.331Z,17.95
2019-01-22T23:39:42.349Z,18.17
2019-01-22T23:42:13.554Z,18.30
2019-01-22T23:44:44.690Z,18.35
2019-01-22T23:47:15.954Z,16.20
2019-01-22T23:49:47.153Z,17.70
2019-01-22T23:52:18.252Z,17.45
2019-01-22T23:54:49.440Z,17.17
2019-01-22T23:57:20.760Z,19.42
2019-01-22T23:59:53.051Z,17.40
